Time;durP1;ratioP1;P1;durP2;ratioP2;P2;SDS_P1;SDS_P2;PMS_P1;PMS_P2;Temp;Humidity;BMP_temperature;BMP_pressure;BME280_temperature;BME280_humidity;BME280_pressure;Samples;Min_cycle;Max_cycle;Signal;HPM_P1;HPM_P2
2020/12/21 00:01:55;;;;;;;3.53;3.23;;;19.10;26.40;;;;;;5075544;28;20183;-61
2020/12/21 00:04:20;;;;;;;3.80;3.25;;;19.20;26.50;;;;;;5077115;28;20162;-61
2020/12/21 00:06:57;;;;;;;3.63;3.33;;;19.20;26.50;;;;;;5077138;28;20186;-61
2020/12/21 00:09:23;;;;;;;3.70;3.40;;;19.20;26.50;;;;;;5077053;28;20155;-61
2020/12/21 00:11:50;;;;;;;3.90;3.50;;;19.20;27.00;;;;;;5076890;28;20241;-62
2020/12/21 00:14:16;;;;;;;2.72;2.53;;;19.20;26.50;;;;;;5075830;28;20184;-61
2020/12/21 00:16:48;;;;;;;4.57;3.55;;;19.20;26.50;;;;;;5077018;28;20151;-61
2020/12/21 00:19:18;;;;;;;3.75;3.35;;;19.20;26.50;;;;;;5076528;28;20184;-61
2020/12/21 00:21:45;;;;;;;4.03;3.72;;;19.20;26.50;;;;;;5076746;28;20193;-61
2020/12/21 00:24:10;;;;;;;4.20;3.80;;;19.20;26.50;;;;;;5076073;28;20155;-61
2020/12/21 00:26:36;;;;;;;3.97;3.60;;;19.10;26.40;;;;;;5076541;28;20680;-62
2020/12/21 00:29:04;;;;;;;3.40;3.10;;;19.20;26.50;;;;;;5076599;28;20610;-61
2020/12/21 00:31:33;;;;;;;3.22;2.92;;;19.20;26.60;;;;;;5075359;28;20159;-61
2020/12/21 00:34:00;;;;;;;4.40;4.10;;;19.10;26.40;;;;;;5075091;28;20181;-61
2020/12/21 00:36:27;;;;;;;4.10;3.80;;;19.10;26.40;;;;;;5076409;28;20162;-61
2020/12/21 00:38:54;;;;;;;3.30;3.00;;;19.20;26.50;;;;;;5074697;28;20205;-61
2020/12/21 00:41:21;;;;;;;4.10;3.67;;;19.20;26.50;;;;;;5076421;28;20191;-61
2020/12/21 00:43:48;;;;;;;3.85;3.22;;;19.20;26.60;;;;;;5076525;28;20253;-61
2020/12/21 00:46:22;;;;;;;4.28;3.63;;;19.20;26.50;;;;;;5074777;28;20201;-61
2020/12/21 00:48:48;;;;;;;4.35;3.95;;;19.20;26.50;;;;;;5075859;28;20218;-61
2020/12/21 00:51:15;;;;;;;3.78;3.47;;;19.20;26.60;;;;;;5076494;28;20150;-61
2020/12/21 00:53:41;;;;;;;3.88;3.53;;;19.20;26.50;;;;;;5075497;28;20502;-61
2020/12/21 00:56:07;;;;;;;3.50;3.20;;;19.10;26.50;;;;;;5076132;28;20509;-61
2020/12/21 00:58:34;;;;;;;3.10;2.90;;;19.20;26.50;;;;;;5076278;28;20547;-60
2020/12/21 01:01:02;;;;;;;3.53;3.10;;;19.20;26.50;;;;;;5076062;28;20405;-61
2020/12/21 01:03:28;;;;;;;3.50;3.20;;;19.20;26.60;;;;;;5075632;28;20162;-61
2020/12/21 01:05:54;;;;;;;3.70;3.40;;;19.20;26.60;;;;;;5076488;28;20170;-61
2020/12/21 01:08:20;;;;;;;3.53;3.23;;;19.20;26.60;;;;;;5075439;28;20648;-61
2020/12/21 01:10:45;;;;;;;3.67;3.37;;;19.20;26.60;;;;;;5075857;28;20167;-61
2020/12/21 01:13:11;;;;;;;3.87;3.20;;;19.20;26.60;;;;;;5075111;28;20157;-61
2020/12/21 01:15:37;;;;;;;4.20;3.50;;;19.20;26.60;;;;;;5076069;28;20204;-61
2020/12/21 01:18:02;;;;;;;3.77;3.47;;;19.20;26.60;;;;;;5075546;28;20446;-61
2020/12/21 01:20:28;;;;;;;5.00;4.00;;;19.10;26.50;;;;;;5075502;28;20610;-60
2020/12/21 01:22:54;;;;;;;3.70;3.40;;;19.10;26.50;;;;;;5057504;28;20178;-61
2020/12/21 01:25:19;;;;;;;4.17;3.77;;;19.10;26.50;;;;;;5075758;28;20170;-61
2020/12/21 01:27:45;;;;;;;3.73;3.40;;;19.20;26.60;;;;;;5075222;28;20217;-61
2020/12/21 01:30:11;;;;;;;4.03;3.63;;;19.10;26.50;;;;;;5075690;28;20167;-61
2020/12/21 01:32:37;;;;;;;3.60;3.30;;;19.10;26.50;;;;;;5075162;28;20529;-61
2020/12/21 01:35:03;;;;;;;3.80;3.40;;;19.10;26.50;;;;;;5073915;28;20660;-61
2020/12/21 01:37:29;;;;;;;3.75;3.45;;;19.10;26.50;;;;;;5074514;28;20178;-61
2020/12/21 01:39:55;;;;;;;3.60;3.30;;;19.20;26.60;;;;;;5074113;28;20510;-61
2020/12/21 01:42:21;;;;;;;3.37;2.87;;;19.20;26.60;;;;;;5075053;28;20237;-61
2020/12/21 01:44:50;;;;;;;4.27;3.90;;;19.20;26.60;;;;;;5075165;28;20517;-61
2020/12/21 01:47:16;;;;;;;3.45;3.15;;;19.20;26.60;;;;;;5075040;28;20769;-61
2020/12/21 01:49:42;;;;;;;3.85;3.45;;;19.10;26.50;;;;;;5075047;28;20222;-61
2020/12/21 01:52:09;;;;;;;3.40;3.10;;;19.10;26.50;;;;;;5074371;28;20211;-61
2020/12/21 01:54:36;;;;;;;3.53;3.33;;;19.10;26.50;;;;;;5075223;28;20162;-61
2020/12/21 01:57:02;;;;;;;4.13;3.72;;;19.10;26.50;;;;;;5074927;28;20277;-61
2020/12/21 01:59:31;;;;;;;3.40;3.10;;;19.10;26.50;;;;;;5074889;28;20170;-61
2020/12/21 02:02:00;;;;;;;3.80;3.38;;;19.10;26.50;;;;;;5074770;28;20155;-61
2020/12/21 02:04:26;;;;;;;4.40;3.35;;;19.10;26.50;;;;;;5074678;28;20161;-61
2020/12/21 02:06:52;;;;;;;3.50;3.20;;;19.10;26.50;;;;;;5074490;28;20265;-61
2020/12/21 02:09:18;;;;;;;4.18;3.83;;;19.10;26.50;;;;;;5072256;28;20269;-61
2020/12/21 02:11:44;;;;;;;3.70;3.40;;;19.10;26.50;;;;;;5074795;28;20573;-61
2020/12/21 02:14:10;;;;;;;4.57;3.70;;;19.10;26.50;;;;;;5074509;28;20158;-61
2020/12/21 02:16:36;;;;;;;3.15;2.92;;;19.10;26.50;;;;;;5074335;28;20427;-61
2020/12/21 02:19:03;;;;;;;3.95;3.60;;;19.10;26.50;;;;;;5074286;28;20166;-61
2020/12/21 02:21:28;;;;;;;4.72;3.97;;;19.10;26.50;;;;;;5074493;28;20163;-61
2020/12/21 02:23:54;;;;;;;3.53;3.23;;;19.10;26.50;;;;;;5073155;28;20487;-61
2020/12/21 02:26:20;;;;;;;3.50;3.20;;;19.10;26.50;;;;;;5074482;28;20269;-61
2020/12/21 02:28:54;;;;;;;3.83;3.53;;;19.10;26.50;;;;;;5073229;28;20293;-61
2020/12/21 02:31:20;;;;;;;3.97;3.67;;;19.10;26.60;;;;;;5074046;28;20169;-61
2020/12/21 02:33:46;;;;;;;3.63;3.33;;;19.10;26.60;;;;;;5074149;28;20155;-61
2020/12/21 02:36:12;;;;;;;4.40;3.55;;;19.10;26.60;;;;;;5074419;28;20154;-61
2020/12/21 02:38:39;;;;;;;3.20;2.90;;;19.10;26.60;;;;;;5073899;28;20505;-61
2020/12/21 02:41:04;;;;;;;4.32;3.92;;;19.10;26.60;;;;;;5074103;28;20216;-61
2020/12/21 02:43:30;;;;;;;3.37;3.10;;;19.10;26.60;;;;;;5074394;28;20158;-61
2020/12/21 02:45:56;;;;;;;3.40;3.10;;;19.10;26.60;;;;;;5074171;28;20610;-62
2020/12/21 02:48:22;;;;;;;3.87;3.40;;;19.10;26.60;;;;;;5073802;28;20214;-61
2020/12/21 02:50:47;;;;;;;4.50;4.10;;;19.10;26.60;;;;;;5074360;28;20397;-61
2020/12/21 02:53:15;;;;;;;3.43;3.13;;;19.10;26.60;;;;;;5073612;28;20521;-62
2020/12/21 02:55:41;;;;;;;3.38;3.08;;;19.10;26.60;;;;;;5074098;28;20230;-61
2020/12/21 02:58:06;;;;;;;4.27;3.87;;;19.10;26.60;;;;;;5074174;28;20569;-61
2020/12/21 03:00:36;;;;;;;3.93;3.57;;;19.10;26.60;;;;;;5073781;28;20162;-61
2020/12/21 03:03:06;;;;;;;3.40;3.10;;;19.10;26.60;;;;;;5073744;28;20723;-61
2020/12/21 03:05:33;;;;;;;4.60;4.20;;;19.10;26.60;;;;;;5074018;28;20166;-61
2020/12/21 03:08:00;;;;;;;3.30;3.05;;;19.10;26.60;;;;;;5073041;28;20186;-61
2020/12/21 03:10:29;;;;;;;3.63;3.33;;;19.10;26.60;;;;;;5072597;28;20158;-61
2020/12/21 03:12:55;;;;;;;3.47;3.03;;;19.00;26.60;;;;;;5073603;28;20173;-61
2020/12/21 03:15:20;;;;;;;3.90;3.60;;;19.00;26.60;;;;;;5073926;28;20510;-61
2020/12/21 03:17:46;;;;;;;3.13;2.93;;;19.10;26.70;;;;;;5073750;28;20609;-62
2020/12/21 03:20:12;;;;;;;4.53;3.60;;;19.10;26.70;;;;;;5072574;28;20689;-61
2020/12/21 03:22:37;;;;;;;3.40;3.10;;;19.00;26.60;;;;;;5073283;28;20169;-61
2020/12/21 03:25:04;;;;;;;3.57;3.13;;;19.00;26.60;;;;;;5073722;28;20170;-62
2020/12/21 03:27:30;;;;;;;3.38;3.08;;;19.00;26.60;;;;;;5072268;28;20189;-61
2020/12/21 03:29:56;;;;;;;3.60;3.30;;;19.00;26.60;;;;;;5073889;28;20174;-61
2020/12/21 03:32:22;;;;;;;3.23;2.93;;;19.00;26.60;;;;;;5072365;28;20446;-61
2020/12/21 03:34:47;;;;;;;2.97;2.75;;;19.00;26.60;;;;;;5073824;28;20392;-61
2020/12/21 03:37:14;;;;;;;3.63;3.30;;;19.00;26.60;;;;;;5077103;28;20747;-60
2020/12/21 03:39:39;;;;;;;3.40;3.10;;;19.00;26.60;;;;;;5077713;28;20151;-60
2020/12/21 03:42:05;;;;;;;2.67;2.47;;;19.00;26.60;;;;;;5077278;28;20182;-60
2020/12/21 03:44:30;;;;;;;3.17;2.93;;;19.00;26.70;;;;;;5077524;28;20166;-60
2020/12/21 03:46:56;;;;;;;3.80;3.50;;;19.00;26.60;;;;;;5077651;28;20645;-60
2020/12/21 03:49:22;;;;;;;3.60;3.30;;;19.00;26.60;;;;;;5077169;28;20661;-60
2020/12/21 03:51:48;;;;;;;3.27;2.97;;;19.00;26.70;;;;;;5077268;28;20869;-60
2020/12/21 03:54:13;;;;;;;3.63;3.33;;;19.00;26.70;;;;;;5075585;28;20159;-60
2020/12/21 03:56:45;;;;;;;3.70;3.40;;;19.00;26.70;;;;;;5077430;28;20197;-60
2020/12/21 03:59:11;;;;;;;4.03;3.65;;;19.00;26.70;;;;;;5077037;28;20253;-60
2020/12/21 04:01:37;;;;;;;3.83;3.27;;;19.00;26.70;;;;;;5077138;28;20232;-60
2020/12/21 04:04:08;;;;;;;3.55;3.03;;;19.00;26.70;;;;;;5076910;28;20423;-60
2020/12/21 04:06:34;;;;;;;3.50;3.20;;;19.00;26.70;;;;;;5076964;28;20194;-60
2020/12/21 04:09:01;;;;;;;3.20;2.90;;;19.00;26.80;;;;;;5076564;28;20177;-60
2020/12/21 04:11:30;;;;;;;3.10;2.90;;;19.00;26.70;;;;;;5076995;28;20166;-60
2020/12/21 04:13:56;;;;;;;4.00;3.60;;;19.00;26.70;;;;;;5076825;28;20161;-60
2020/12/21 04:16:21;;;;;;;2.67;2.53;;;19.00;26.70;;;;;;5076868;28;20154;-60
2020/12/21 04:18:47;;;;;;;3.40;3.03;;;19.00;26.70;;;;;;5076860;28;20667;-61
2020/12/21 04:21:13;;;;;;;3.23;2.93;;;19.00;26.80;;;;;;5076822;28;20159;-60
2020/12/21 04:23:40;;;;;;;3.05;2.85;;;18.90;26.70;;;;;;5076137;28;20209;-60
2020/12/21 04:26:06;;;;;;;3.28;3.00;;;19.00;26.80;;;;;;5076801;28;20509;-61
2020/12/21 04:28:33;;;;;;;3.45;3.15;;;19.00;26.70;;;;;;5076541;28;20521;-61
2020/12/21 04:31:03;;;;;;;3.13;2.90;;;19.00;26.90;;;;;;5076616;28;20222;-61
2020/12/21 04:33:31;;;;;;;3.30;3.00;;;19.00;26.80;;;;;;5076701;28;20155;-61
2020/12/21 04:35:57;;;;;;;3.08;2.80;;;19.00;26.80;;;;;;5076433;28;20166;-61
2020/12/21 04:38:23;;;;;;;3.57;3.27;;;18.90;26.70;;;;;;5075861;28;20163;-61
2020/12/21 04:40:55;;;;;;;3.33;3.03;;;18.90;26.80;;;;;;5076292;28;20200;-61
2020/12/21 04:43:24;;;;;;;3.85;3.55;;;18.90;26.80;;;;;;5076411;28;20617;-60
2020/12/21 04:45:53;;;;;;;3.97;3.60;;;18.90;26.80;;;;;;5076460;28;20169;-61
2020/12/21 04:48:21;;;;;;;3.90;3.60;;;18.90;26.80;;;;;;5075004;28;20605;-61
2020/12/21 04:50:53;;;;;;;4.00;3.38;;;18.90;26.80;;;;;;5076411;28;20162;-61
2020/12/21 04:53:20;;;;;;;3.30;3.00;;;18.90;26.80;;;;;;5074617;28;20166;-61
2020/12/21 04:55:46;;;;;;;3.58;3.30;;;18.90;26.80;;;;;;5076098;28;20151;-61
2020/12/21 04:58:12;;;;;;;3.42;3.05;;;18.90;26.80;;;;;;5076146;28;20165;-61
2020/12/21 05:00:38;;;;;;;3.50;3.20;;;18.90;26.80;;;;;;5075904;28;20166;-61
2020/12/21 05:03:04;;;;;;;3.07;2.87;;;18.90;26.80;;;;;;5075913;28;20409;-61
2020/12/21 05:05:34;;;;;;;3.40;3.10;;;18.90;26.80;;;;;;5075895;28;20174;-61
2020/12/21 05:08:15;;;;;;;3.03;2.78;;;18.90;26.80;;;;;;5075344;28;20190;-61
2020/12/21 05:10:45;;;;;;;3.65;3.35;;;18.90;26.80;;;;;;5074646;28;20162;-61
2020/12/21 05:13:12;;;;;;;3.33;3.08;;;18.90;26.80;;;;;;5075732;28;20151;-61
2020/12/21 05:15:39;;;;;;;4.07;3.50;;;18.90;26.80;;;;;;5074388;28;20185;-60
2020/12/21 05:18:06;;;;;;;3.53;3.22;;;18.90;26.80;;;;;;5075831;28;20200;-61
2020/12/21 05:20:33;;;;;;;3.55;3.30;;;18.90;26.80;;;;;;5075605;28;20162;-61
2020/12/21 05:23:03;;;;;;;3.45;3.15;;;18.90;26.80;;;;;;5075422;28;20185;-61
2020/12/21 05:25:29;;;;;;;3.42;3.13;;;18.90;26.80;;;;;;5075404;28;20146;-61
2020/12/21 05:27:55;;;;;;;3.50;3.20;;;18.90;26.90;;;;;;5074072;28;20207;-61
2020/12/21 05:30:21;;;;;;;3.30;3.00;;;18.90;26.80;;;;;;5075487;28;20159;-61
2020/12/21 05:32:46;;;;;;;2.80;2.60;;;18.90;26.90;;;;;;5074256;28;20417;-61
2020/12/21 05:35:14;;;;;;;4.10;3.70;;;18.90;26.90;;;;;;5075749;28;20620;-61
2020/12/21 05:37:40;;;;;;;2.95;2.75;;;18.90;26.90;;;;;;5073405;28;20189;-61
2020/12/21 05:40:07;;;;;;;3.57;3.27;;;18.90;26.90;;;;;;5075151;28;20166;-61
2020/12/21 05:42:35;;;;;;;2.70;2.50;;;18.90;26.90;;;;;;5075614;28;20455;-61
2020/12/21 05:45:05;;;;;;;3.92;3.63;;;18.90;26.90;;;;;;5075216;28;20158;-61
2020/12/21 05:47:31;;;;;;;3.75;3.45;;;18.90;26.90;;;;;;5074884;28;20507;-60
2020/12/21 05:50:06;;;;;;;3.13;2.93;;;18.90;26.90;;;;;;5074954;28;20226;-61
2020/12/21 05:52:38;;;;;;;3.42;3.15;;;18.90;26.90;;;;;;5074404;28;20249;-61
2020/12/21 05:55:11;;;;;;;3.85;3.10;;;18.90;26.90;;;;;;5074988;28;20649;-61
2020/12/21 05:57:38;;;;;;;3.30;3.00;;;18.90;26.90;;;;;;5074683;28;20166;-62
2020/12/21 06:00:06;;;;;;;3.97;3.40;;;18.90;26.90;;;;;;5075114;28;20159;-61
2020/12/21 06:02:33;;;;;;;3.30;3.05;;;18.90;26.90;;;;;;5074775;28;20626;-61
2020/12/21 06:05:01;;;;;;;2.95;2.75;;;18.80;26.90;;;;;;5074946;28;20170;-62
2020/12/21 06:07:30;;;;;;;2.53;2.30;;;18.90;26.90;;;;;;5074025;28;20182;-62
2020/12/21 06:10:00;;;;;;;3.42;3.20;;;18.90;26.90;;;;;;5074741;28;20220;-61
2020/12/21 06:12:28;;;;;;;2.83;2.63;;;18.90;26.90;;;;;;5074387;28;20233;-61
2020/12/21 06:15:09;;;;;;;3.33;3.13;;;18.80;26.80;;;;;;5073476;28;20170;-61
2020/12/21 06:17:36;;;;;;;3.28;2.97;;;18.90;27.50;;;;;;5074433;28;20185;-61
2020/12/21 06:20:05;;;;;;;3.25;3.05;;;18.90;26.90;;;;;;5074246;28;20178;-61
2020/12/21 06:22:31;;;;;;;5.00;3.47;;;18.80;26.80;;;;;;5073610;28;20159;-61
2020/12/21 06:24:57;;;;;;;3.67;3.37;;;18.80;26.80;;;;;;5073232;28;20273;-61
2020/12/21 06:27:23;;;;;;;3.97;3.13;;;18.90;26.90;;;;;;5072798;28;20198;-61
2020/12/21 06:29:59;;;;;;;2.90;2.70;;;18.90;26.90;;;;;;5074374;28;20277;-61
2020/12/21 06:32:30;;;;;;;3.22;2.80;;;18.80;26.80;;;;;;5074167;28;20146;-61
2020/12/21 06:34:56;;;;;;;4.20;3.78;;;18.90;26.90;;;;;;5074353;28;20250;-61
2020/12/21 06:37:22;;;;;;;2.87;2.63;;;18.90;26.90;;;;;;5073690;28;20582;-61
2020/12/21 06:40:05;;;;;;;3.90;2.90;;;18.90;26.90;;;;;;5072878;28;20181;-61
2020/12/21 06:42:31;;;;;;;2.70;2.50;;;18.80;26.80;;;;;;5074088;28;20166;-61
2020/12/21 06:44:57;;;;;;;3.37;3.00;;;18.80;26.80;;;;;;5074210;28;20517;-62
2020/12/21 06:47:24;;;;;;;3.08;2.78;;;18.80;26.80;;;;;;5074013;28;20641;-62
2020/12/21 06:49:51;;;;;;;3.95;3.55;;;18.80;26.80;;;;;;5072617;28;20218;-62
2020/12/21 06:52:17;;;;;;;2.85;2.65;;;18.80;26.80;;;;;;5073252;28;20605;-62
2020/12/21 06:54:44;;;;;;;3.07;2.80;;;18.90;26.90;;;;;;5073960;28;20164;-62
2020/12/21 06:57:10;;;;;;;3.20;2.90;;;18.80;26.80;;;;;;5073773;28;20419;-61
2020/12/21 06:59:36;;;;;;;3.63;2.80;;;18.80;26.80;;;;;;5073475;28;20158;-61
2020/12/21 07:02:02;;;;;;;4.07;3.40;;;18.80;26.80;;;;;;5073375;28;20376;-61
2020/12/21 07:04:31;;;;;;;3.70;2.85;;;18.80;26.80;;;;;;5073396;28;20445;-60
2020/12/21 07:07:04;;;;;;;3.28;3.05;;;18.80;26.80;;;;;;5071497;28;20660;-60
2020/12/21 07:09:35;;;;;;;3.20;2.92;;;18.80;26.80;;;;;;5071797;28;20178;-61
2020/12/21 07:12:06;;;;;;;4.18;3.40;;;18.80;26.80;;;;;;5055262;28;20220;-61
2020/12/21 07:14:36;;;;;;;3.60;3.40;;;18.80;26.80;;;;;;5072212;28;20245;-61
2020/12/21 07:17:07;;;;;;;3.58;3.28;;;18.80;26.80;;;;;;5073277;28;20151;-61
2020/12/21 07:19:34;;;;;;;3.15;2.80;;;18.80;26.80;;;;;;5073182;28;20613;-61
2020/12/21 07:22:05;;;;;;;3.25;3.05;;;18.80;26.80;;;;;;5072747;28;20181;-61
2020/12/21 07:24:31;;;;;;;3.30;3.00;;;18.80;26.80;;;;;;5055752;28;20178;-61
2020/12/21 07:26:57;;;;;;;3.33;3.03;;;18.80;26.80;;;;;;5071823;28;20545;-61
2020/12/21 07:29:22;;;;;;;2.70;2.50;;;18.80;26.80;;;;;;5073164;28;20400;-61
2020/12/21 07:31:49;;;;;;;3.23;3.03;;;18.80;26.80;;;;;;5073164;28;20155;-61
2020/12/21 07:34:15;;;;;;;3.20;3.00;;;18.80;26.80;;;;;;5073015;28;20250;-61
2020/12/21 07:36:41;;;;;;;3.42;2.95;;;18.80;26.80;;;;;;5073468;28;20499;-61
2020/12/21 07:39:15;;;;;;;3.10;2.80;;;18.80;26.80;;;;;;5072715;28;20573;-61
2020/12/21 07:41:45;;;;;;;2.85;2.65;;;18.80;26.80;;;;;;5073006;28;20193;-61
2020/12/21 07:44:14;;;;;;;3.10;2.90;;;18.80;26.80;;;;;;5073023;28;20166;-61
2020/12/21 07:47:01;;;;;;;3.10;2.90;;;18.80;26.80;;;;;;5072980;28;20175;-61
2020/12/21 07:49:30;;;;;;;3.75;3.10;;;18.80;26.80;;;;;;5072661;28;20217;-60
2020/12/21 07:52:02;;;;;;;2.95;2.75;;;18.80;26.80;;;;;;5072495;28;20159;-61
2020/12/21 07:54:31;;;;;;;2.90;2.70;;;18.80;26.70;;;;;;5072981;28;20629;-61
2020/12/21 07:57:18;;;;;;;3.00;2.80;;;18.80;26.70;;;;;;5071477;28;20209;-61
2020/12/21 07:59:57;;;;;;;2.83;2.60;;;18.80;26.70;;;;;;5072791;28;20151;-61
2020/12/21 08:02:24;;;;;;;3.72;3.42;;;18.80;27.20;;;;;;5072900;28;20162;-61
2020/12/21 08:04:50;;;;;;;2.83;2.63;;;18.80;26.60;;;;;;5071688;28;20598;-61
2020/12/21 08:07:15;;;;;;;3.10;2.90;;;18.80;26.70;;;;;;5072129;28;20190;-61
2020/12/21 08:09:44;;;;;;;2.93;2.73;;;18.80;26.70;;;;;;5071389;28;20202;-60
2020/12/21 08:12:16;;;;;;;3.30;3.00;;;18.80;26.60;;;;;;5072471;28;20150;-61
2020/12/21 08:14:45;;;;;;;2.70;2.50;;;18.80;27.20;;;;;;5071593;28;20625;-61
2020/12/21 08:17:12;;;;;;;2.97;2.78;;;18.80;26.60;;;;;;5071380;28;20224;-61
2020/12/21 08:19:51;;;;;;;3.50;3.20;;;18.80;26.60;;;;;;5072683;28;20177;-61
2020/12/21 08:22:24;;;;;;;3.35;2.72;;;17.60;25.80;;;;;;5073031;28;20174;-61
2020/12/21 08:25:09;;;;;;;2.75;2.55;;;18.80;26.60;;;;;;5074940;28;20204;-61
2020/12/21 08:27:48;;;;;;;3.22;2.95;;;18.90;26.80;;;;;;5074711;28;20218;-61
2020/12/21 08:30:22;;;;;;;3.20;2.90;;;18.80;26.60;;;;;;5076198;28;20385;-61
2020/12/21 08:32:50;;;;;;;3.00;2.70;;;18.80;26.60;;;;;;5075977;28;20157;-60
2020/12/21 08:35:26;;;;;;;3.17;2.90;;;18.80;26.70;;;;;;5075115;28;20158;-61
2020/12/21 08:37:52;;;;;;;3.13;2.92;;;18.80;26.50;;;;;;5075536;28;20182;-62
2020/12/21 08:40:22;;;;;;;3.10;2.90;;;18.90;26.60;;;;;;5076111;28;20162;-61
2020/12/21 08:42:48;;;;;;;2.83;2.63;;;18.80;26.10;;;;;;5058148;28;20179;-61
2020/12/21 08:45:21;;;;;;;3.30;3.05;;;18.80;26.50;;;;;;5075865;28;20182;-61
2020/12/21 08:47:50;;;;;;;2.88;2.67;;;18.90;26.60;;;;;;5075556;28;20178;-62
2020/12/21 08:50:16;;;;;;;4.53;2.88;;;18.80;26.50;;;;;;5075485;28;20194;-60
2020/12/21 08:52:42;;;;;;;2.92;2.72;;;18.80;26.50;;;;;;5057590;28;20200;-61
2020/12/21 08:55:08;;;;;;;3.40;3.10;;;18.90;26.50;;;;;;5075735;28;20602;-61
2020/12/21 08:57:34;;;;;;;3.03;2.80;;;18.90;26.50;;;;;;5075278;28;20401;-59
2020/12/21 09:00:00;;;;;;;3.95;3.17;;;18.90;26.50;;;;;;5074295;28;20521;-60
2020/12/21 09:02:26;;;;;;;3.13;2.80;;;18.90;26.50;;;;;;5074260;28;20166;-61
2020/12/21 09:04:51;;;;;;;3.30;3.00;;;18.90;26.50;;;;;;5074311;28;20219;-59
2020/12/21 09:07:17;;;;;;;3.30;2.97;;;18.90;26.50;;;;;;5074978;28;20451;-61
2020/12/21 09:09:43;;;;;;;2.83;2.63;;;20.10;27.30;;;;;;5074024;28;20673;-61
2020/12/21 09:12:08;;;;;;;3.20;3.00;;;18.90;26.50;;;;;;5075002;28;20886;-61
2020/12/21 09:14:34;;;;;;;2.60;2.40;;;18.90;26.40;;;;;;5075141;28;20606;-61
2020/12/21 09:17:00;;;;;;;2.77;2.57;;;18.90;26.40;;;;;;5055693;28;20162;-61
2020/12/21 09:19:26;;;;;;;2.83;2.43;;;18.90;26.40;;;;;;5060935;28;20400;-61
2020/12/21 09:21:52;;;;;;;2.93;2.60;;;18.90;26.40;;;;;;5066947;28;20166;-61
2020/12/21 09:24:17;;;;;;;3.63;3.33;;;18.90;26.40;;;;;;5063195;28;20186;-60
2020/12/21 09:26:43;;;;;;;2.80;2.60;;;18.90;26.50;;;;;;5085462;28;20493;-60
2020/12/21 09:29:09;;;;;;;3.33;3.03;;;18.90;26.50;;;;;;5082483;28;20189;-61
2020/12/21 09:31:34;;;;;;;2.93;2.73;;;18.90;26.40;;;;;;5086449;28;20193;-61
2020/12/21 09:34:00;;;;;;;2.93;2.70;;;18.90;26.30;;;;;;5082038;28;20611;-60
2020/12/21 09:36:27;;;;;;;2.57;2.40;;;18.90;26.40;;;;;;5086131;28;20204;-61
2020/12/21 09:38:53;;;;;;;3.70;3.17;;;18.90;26.30;;;;;;5077554;28;20177;-61
2020/12/21 09:41:20;;;;;;;2.50;2.30;;;18.90;26.30;;;;;;5051077;28;20274;-61
2020/12/21 09:43:49;;;;;;;3.45;3.25;;;18.90;26.30;;;;;;5084116;28;20535;-60
2020/12/21 09:46:20;;;;;;;2.88;2.60;;;18.90;26.30;;;;;;5071167;28;20182;-61
2020/12/21 09:48:47;;;;;;;2.92;2.72;;;18.90;26.20;;;;;;5050500;28;20225;-60
2020/12/21 09:51:13;;;;;;;3.10;2.80;;;18.90;26.20;;;;;;5087053;28;20170;-61
2020/12/21 09:53:39;;;;;;;2.70;2.50;;;18.90;26.20;;;;;;5079963;28;20180;-60
2020/12/21 09:56:08;;;;;;;4.90;3.13;;;18.90;26.20;;;;;;5081291;28;20818;-60
2020/12/21 09:58:34;;;;;;;3.47;3.17;;;18.30;25.80;;;;;;5069063;28;20478;-60
2020/12/21 10:01:00;;;;;;;3.60;3.00;;;19.00;26.20;;;;;;5062650;28;20253;-61
2020/12/21 10:03:25;;;;;;;3.43;3.00;;;19.00;26.20;;;;;;5071546;28;20158;-60
2020/12/21 10:05:51;;;;;;;2.77;2.57;;;18.90;26.10;;;;;;5065897;28;20181;-60
2020/12/21 10:08:17;;;;;;;2.97;2.43;;;19.00;26.10;;;;;;5083107;28;20233;-60
2020/12/21 10:10:47;;;;;;;2.90;2.67;;;19.00;26.10;;;;;;5083603;28;20253;-60
2020/12/21 10:13:15;;;;;;;2.80;2.60;;;19.00;26.10;;;;;;5071327;28;20174;-60
2020/12/21 10:15:41;;;;;;;2.83;2.55;;;19.00;26.10;;;;;;5059547;28;20167;-60
2020/12/21 10:18:07;;;;;;;2.60;2.40;;;19.00;26.10;;;;;;5098719;28;20214;-61
2020/12/21 10:20:33;;;;;;;2.88;2.60;;;19.00;26.10;;;;;;5094834;28;20196;-60
2020/12/21 10:23:00;;;;;;;3.00;2.67;;;19.00;26.00;;;;;;5081385;28;20190;-62
2020/12/21 10:25:26;;;;;;;3.10;2.90;;;19.10;26.00;;;;;;5095971;28;20747;-61
2020/12/21 10:27:52;;;;;;;3.97;3.43;;;19.10;26.00;;;;;;5090398;28;20234;-62
2020/12/21 10:30:18;;;;;;;3.50;3.20;;;19.10;25.80;;;;;;5085028;28;20906;-62
2020/12/21 10:32:44;;;;;;;2.97;2.78;;;19.20;26.00;;;;;;5089510;28;20485;-61
2020/12/21 10:35:10;;;;;;;3.20;2.85;;;19.50;26.00;;;;;;5065456;28;20171;-60
2020/12/21 10:37:37;;;;;;;2.80;2.53;;;19.10;25.70;;;;;;5077438;28;20231;-61
2020/12/21 10:40:04;;;;;;;3.20;2.90;;;21.10;27.10;;;;;;5070362;28;20178;-60
2020/12/21 10:42:32;;;;;;;2.67;2.47;;;19.20;25.80;;;;;;5061590;28;20177;-61
2020/12/21 10:44:58;;;;;;;3.10;2.80;;;19.20;25.70;;;;;;5052549;28;20189;-61
2020/12/21 10:47:24;;;;;;;3.17;2.90;;;19.20;25.70;;;;;;5057905;28;20198;-61
2020/12/21 10:49:50;;;;;;;3.35;2.90;;;19.20;25.70;;;;;;5063935;28;20967;-61
2020/12/21 10:52:16;;;;;;;3.00;2.80;;;19.20;25.70;;;;;;5047680;28;20176;-61
2020/12/21 10:54:41;;;;;;;4.07;3.50;;;19.20;25.70;;;;;;5091298;28;20644;-61
2020/12/21 10:57:07;;;;;;;3.20;2.90;;;19.20;25.70;;;;;;5083527;28;20182;-61
2020/12/21 10:59:34;;;;;;;3.50;3.00;;;19.20;25.70;;;;;;5090878;28;20181;-61
2020/12/21 11:02:00;;;;;;;3.55;3.25;;;19.20;25.70;;;;;;5056282;28;20434;-60
2020/12/21 11:04:25;;;;;;;3.50;2.97;;;19.20;25.70;;;;;;5083606;28;20190;-60
2020/12/21 11:06:51;;;;;;;2.33;2.13;;;19.20;25.70;;;;;;5089748;28;20259;-60
2020/12/21 11:09:17;;;;;;;3.30;3.10;;;19.20;25.70;;;;;;5078794;28;20172;-61
2020/12/21 11:11:42;;;;;;;3.50;3.20;;;19.20;25.60;;;;;;5089144;28;20181;-61
2020/12/21 11:14:08;;;;;;;3.17;2.83;;;19.20;25.60;;;;;;5087695;28;20203;-61
2020/12/21 11:16:35;;;;;;;2.80;2.60;;;19.20;25.60;;;;;;5065203;28;20204;-60
2020/12/21 11:19:00;;;;;;;3.53;3.10;;;19.30;25.70;;;;;;5082407;28;20435;-61
2020/12/21 11:21:26;;;;;;;3.40;2.60;;;19.30;25.60;;;;;;5070252;28;20719;-61
2020/12/21 11:23:52;;;;;;;3.20;2.93;;;19.30;25.70;;;;;;5089209;28;20632;-61
2020/12/21 11:26:19;;;;;;;3.77;2.87;;;19.20;25.50;;;;;;5071072;28;20431;-61
2020/12/21 11:28:48;;;;;;;3.95;3.65;;;19.30;25.60;;;;;;5081518;28;20272;-61
2020/12/21 11:31:17;;;;;;;2.85;2.65;;;19.30;25.60;;;;;;5078618;28;20264;-60
2020/12/21 11:33:44;;;;;;;3.00;2.80;;;19.30;25.50;;;;;;5091819;28;20201;-60
2020/12/21 11:36:11;;;;;;;4.68;3.03;;;19.30;25.50;;;;;;5085064;28;20190;-60
2020/12/21 11:38:37;;;;;;;4.18;3.72;;;19.30;25.50;;;;;;5065345;28;20178;-60
2020/12/21 11:41:04;;;;;;;3.30;2.47;;;19.30;25.40;;;;;;5090688;28;20170;-61
2020/12/21 11:43:30;;;;;;;3.15;2.92;;;19.30;25.50;;;;;;5070009;28;20224;-61
2020/12/21 11:45:55;;;;;;;2.90;2.70;;;19.30;25.40;;;;;;5090348;28;20205;-61
2020/12/21 11:48:21;;;;;;;3.40;3.13;;;19.30;25.40;;;;;;5072140;28;21028;-60
2020/12/21 11:50:47;;;;;;;3.57;3.27;;;19.30;25.40;;;;;;5086893;28;20228;-61
2020/12/21 11:53:13;;;;;;;3.00;2.70;;;19.30;25.40;;;;;;5076184;28;20171;-60
2020/12/21 11:55:39;;;;;;;4.03;3.63;;;19.30;25.40;;;;;;5081356;28;20170;-60
2020/12/21 11:58:05;;;;;;;3.03;2.67;;;19.30;25.50;;;;;;5068594;28;20246;-61
2020/12/21 12:00:31;;;;;;;2.88;2.58;;;19.30;25.50;;;;;;5073353;28;20656;-60
2020/12/21 12:02:57;;;;;;;3.22;2.92;;;19.30;25.50;;;;;;5073302;28;20269;-60
2020/12/21 12:05:22;;;;;;;3.00;2.70;;;19.30;25.50;;;;;;5076647;28;20602;-61
2020/12/21 12:07:48;;;;;;;3.70;2.50;;;19.30;25.50;;;;;;5085930;28;20541;-60
2020/12/21 12:10:17;;;;;;;3.20;2.90;;;19.30;25.40;;;;;;5071767;28;20535;-61
2020/12/21 12:12:45;;;;;;;3.55;3.25;;;19.30;25.40;;;;;;5089436;28;20434;-61
2020/12/21 12:15:11;;;;;;;2.88;2.67;;;19.40;25.40;;;;;;5077300;28;20663;-60
2020/12/21 12:17:36;;;;;;;3.57;3.03;;;19.40;25.30;;;;;;5072175;28;20189;-60
2020/12/21 12:20:03;;;;;;;3.23;2.93;;;19.40;25.30;;;;;;5087849;28;20182;-60
2020/12/21 12:22:29;;;;;;;3.13;2.88;;;19.40;25.30;;;;;;5077966;28;20619;-61
2020/12/21 12:24:55;;;;;;;3.70;3.40;;;19.40;25.30;;;;;;5092452;28;20643;-60
2020/12/21 12:27:20;;;;;;;3.17;2.97;;;19.40;25.20;;;;;;5089482;28;20198;-60
2020/12/21 12:29:46;;;;;;;4.27;3.20;;;19.40;25.20;;;;;;5087253;28;20197;-61
2020/12/21 12:32:11;;;;;;;2.60;2.40;;;19.40;25.20;;;;;;5090744;28;20624;-60
2020/12/21 12:34:39;;;;;;;3.70;3.40;;;19.40;25.20;;;;;;5106762;28;20172;-60
2020/12/21 12:37:05;;;;;;;2.90;2.70;;;19.40;25.20;;;;;;5107436;28;20591;-61
2020/12/21 12:39:30;;;;;;;3.20;2.90;;;19.40;25.10;;;;;;5114550;28;20632;-60
2020/12/21 12:41:56;;;;;;;2.83;2.63;;;19.50;25.30;;;;;;5116154;28;20414;-60
2020/12/21 12:44:21;;;;;;;3.07;2.77;;;19.50;25.20;;;;;;5109811;28;20620;-60
2020/12/21 12:46:50;;;;;;;3.20;2.80;;;19.50;25.20;;;;;;5093448;28;20238;-61
2020/12/21 12:49:22;;;;;;;3.10;2.55;;;19.50;25.10;;;;;;5091350;28;20278;-60